sensor_id;sensor_type;location;lat;lon;timestamp;pressure;altitude;pressure_sealevel;temperature;humidity
82418;BME280;72059;53.734;10.260;2023-11-21T00:00:35;100509.19;;;6.18;100.00
82418;BME280;72059;53.734;10.260;2023-11-21T00:03:02;100510.74;;;6.14;100.00
82418;BME280;72059;53.734;10.260;2023-11-21T00:05:30;100514.05;;;6.12;100.00
82418;BME280;72059;53.734;10.260;2023-11-21T00:07:57;100511.41;;;6.10;100.00
82418;BME280;72059;53.734;10.260;2023-11-21T00:10:25;100516.39;;;6.07;100.00
82418;BME280;72059;53.734;10.260;2023-11-21T00:12:53;100521.69;;;6.02;100.00
82418;BME280;72059;53.734;10.260;2023-11-21T00:15:21;100524.50;;;5.98;100.00
82418;BME280;72059;53.734;10.260;2023-11-21T00:17:48;100528.70;;;5.96;100.00
82418;BME280;72059;53.734;10.260;2023-11-21T00:20:16;100524.22;;;5.92;100.00
82418;BME280;72059;53.734;10.260;2023-11-21T00:22:43;100525.42;;;5.90;100.00
82418;BME280;72059;53.734;10.260;2023-11-21T00:25:11;100531.38;;;5.89;100.00
82418;BME280;72059;53.734;10.260;2023-11-21T00:27:41;100538.11;;;5.87;100.00
82418;BME280;72059;53.734;10.260;2023-11-21T00:30:09;100545.01;;;5.88;100.00
82418;BME280;72059;53.734;10.260;2023-11-21T00:32:37;100549.59;;;5.86;100.00
82418;BME280;72059;53.734;10.260;2023-11-21T00:35:05;100559.02;;;5.85;100.00
82418;BME280;72059;53.734;10.260;2023-11-21T00:37:32;100565.36;;;5.84;100.00
82418;BME280;72059;53.734;10.260;2023-11-21T00:40:00;100559.63;;;5.81;100.00
82418;BME280;72059;53.734;10.260;2023-11-21T00:42:29;100563.17;;;5.83;100.00
82418;BME280;72059;53.734;10.260;2023-11-21T00:44:58;100566.88;;;5.80;100.00
82418;BME280;72059;53.734;10.260;2023-11-21T00:47:25;100565.50;;;5.78;100.00
82418;BME280;72059;53.734;10.260;2023-11-21T00:49:53;100573.86;;;5.74;100.00
82418;BME280;72059;53.734;10.260;2023-11-21T00:52:20;100580.94;;;5.70;99.98
82418;BME280;72059;53.734;10.260;2023-11-21T00:54:48;100580.14;;;5.63;99.94
82418;BME280;72059;53.734;10.260;2023-11-21T00:57:15;100581.77;;;5.61;99.93
82418;BME280;72059;53.734;10.260;2023-11-21T00:59:43;100592.27;;;5.57;99.91
82418;BME280;72059;53.734;10.260;2023-11-21T01:02:10;100594.20;;;5.53;99.90
82418;BME280;72059;53.734;10.260;2023-11-21T01:04:38;100590.69;;;5.51;99.91
82418;BME280;72059;53.734;10.260;2023-11-21T01:07:05;100605.93;;;5.48;99.91
82418;BME280;72059;53.734;10.260;2023-11-21T01:09:33;100605.84;;;5.46;99.93
82418;BME280;72059;53.734;10.260;2023-11-21T01:12:01;100606.23;;;5.46;99.94
82418;BME280;72059;53.734;10.260;2023-11-21T01:14:28;100607.38;;;5.43;99.92
82418;BME280;72059;53.734;10.260;2023-11-21T01:16:55;100609.45;;;5.42;99.92
82418;BME280;72059;53.734;10.260;2023-11-21T01:19:23;100613.13;;;5.38;99.91
82418;BME280;72059;53.734;10.260;2023-11-21T01:21:50;100611.62;;;5.34;99.89
82418;BME280;72059;53.734;10.260;2023-11-21T01:24:19;100611.06;;;5.31;99.90
82418;BME280;72059;53.734;10.260;2023-11-21T01:26:46;100613.47;;;5.28;99.88
82418;BME280;72059;53.734;10.260;2023-11-21T01:29:14;100624.77;;;5.23;99.87
82418;BME280;72059;53.734;10.260;2023-11-21T01:31:41;100631.57;;;5.23;99.88
82418;BME280;72059;53.734;10.260;2023-11-21T01:34:08;100624.03;;;5.18;99.86
82418;BME280;72059;53.734;10.260;2023-11-21T01:36:36;100631.56;;;5.14;99.84
82418;BME280;72059;53.734;10.260;2023-11-21T01:39:03;100629.42;;;5.14;99.85
82418;BME280;72059;53.734;10.260;2023-11-21T01:41:32;100633.56;;;5.12;99.84
82418;BME280;72059;53.734;10.260;2023-11-21T01:44:01;100639.90;;;5.10;99.85
82418;BME280;72059;53.734;10.260;2023-11-21T01:46:28;100645.36;;;5.08;99.86
82418;BME280;72059;53.734;10.260;2023-11-21T01:48:56;100641.81;;;5.06;99.85
82418;BME280;72059;53.734;10.260;2023-11-21T01:51:24;100647.28;;;5.04;99.85
82418;BME280;72059;53.734;10.260;2023-11-21T01:53:52;100647.20;;;5.03;99.83
82418;BME280;72059;53.734;10.260;2023-11-21T01:56:20;100649.59;;;4.99;99.83
82418;BME280;72059;53.734;10.260;2023-11-21T01:58:48;100647.92;;;5.00;99.81
82418;BME280;72059;53.734;10.260;2023-11-21T02:01:15;100648.55;;;4.96;99.76
82418;BME280;72059;53.734;10.260;2023-11-21T02:03:44;100648.30;;;4.91;99.72
82418;BME280;72059;53.734;10.260;2023-11-21T02:06:12;100652.44;;;4.89;99.70
82418;BME280;72059;53.734;10.260;2023-11-21T02:08:39;100662.14;;;4.86;99.71
82418;BME280;72059;53.734;10.260;2023-11-21T02:11:08;100665.98;;;4.86;99.70
82418;BME280;72059;53.734;10.260;2023-11-21T02:13:37;100666.31;;;4.84;99.69
82418;BME280;72059;53.734;10.260;2023-11-21T02:16:07;100670.16;;;4.84;99.69
82418;BME280;72059;53.734;10.260;2023-11-21T02:18:35;100674.87;;;4.85;99.74
82418;BME280;72059;53.734;10.260;2023-11-21T02:21:04;100679.05;;;4.83;99.70
82418;BME280;72059;53.734;10.260;2023-11-21T02:23:32;100677.27;;;4.82;99.72
82418;BME280;72059;53.734;10.260;2023-11-21T02:26:00;100682.72;;;4.80;99.71
82418;BME280;72059;53.734;10.260;2023-11-21T02:28:29;100689.14;;;4.80;99.68
82418;BME280;72059;53.734;10.260;2023-11-21T02:30:57;100683.11;;;4.79;99.68
82418;BME280;72059;53.734;10.260;2023-11-21T02:33:25;100686.48;;;4.78;99.67
82418;BME280;72059;53.734;10.260;2023-11-21T02:35:52;100696.27;;;4.77;99.67
82418;BME280;72059;53.734;10.260;2023-11-21T02:38:23;100694.47;;;4.76;99.67
82418;BME280;72059;53.734;10.260;2023-11-21T02:40:51;100705.16;;;4.75;99.66
82418;BME280;72059;53.734;10.260;2023-11-21T02:43:18;100704.67;;;4.74;99.65
82418;BME280;72059;53.734;10.260;2023-11-21T02:45:46;100707.15;;;4.73;99.63
82418;BME280;72059;53.734;10.260;2023-11-21T02:48:13;100713.05;;;4.72;99.64
82418;BME280;72059;53.734;10.260;2023-11-21T02:50:41;100709.06;;;4.69;99.63
82418;BME280;72059;53.734;10.260;2023-11-21T02:53:09;100708.36;;;4.65;99.58
82418;BME280;72059;53.734;10.260;2023-11-21T02:55:37;100712.45;;;4.61;99.56
82418;BME280;72059;53.734;10.260;2023-11-21T02:58:04;100712.78;;;4.59;99.55
82418;BME280;72059;53.734;10.260;2023-11-21T03:00:32;100712.27;;;4.58;99.56
82418;BME280;72059;53.734;10.260;2023-11-21T03:02:59;100708.33;;;4.56;99.54
82418;BME280;72059;53.734;10.260;2023-11-21T03:05:27;100712.98;;;4.55;99.54
82418;BME280;72059;53.734;10.260;2023-11-21T03:07:55;100713.37;;;4.55;99.53
82418;BME280;72059;53.734;10.260;2023-11-21T03:10:22;100713.70;;;4.53;99.52
82418;BME280;72059;53.734;10.260;2023-11-21T03:12:50;100712.80;;;4.52;99.51
82418;BME280;72059;53.734;10.260;2023-11-21T03:15:17;100717.45;;;4.51;99.51
82418;BME280;72059;53.734;10.260;2023-11-21T03:17:44;100716.97;;;4.50;99.51
82418;BME280;72059;53.734;10.260;2023-11-21T03:20:12;100720.02;;;4.51;99.52
82418;BME280;72059;53.734;10.260;2023-11-21T03:22:40;100732.35;;;4.50;99.54
82418;BME280;72059;53.734;10.260;2023-11-21T03:25:08;100727.23;;;4.50;99.54
82418;BME280;72059;53.734;10.260;2023-11-21T03:27:37;100731.55;;;4.51;99.56
82418;BME280;72059;53.734;10.260;2023-11-21T03:30:07;100739.81;;;4.54;99.57
82418;BME280;72059;53.734;10.260;2023-11-21T03:32:34;100747.92;;;4.53;99.55
82418;BME280;72059;53.734;10.260;2023-11-21T03:35:02;100750.55;;;4.55;99.59
82418;BME280;72059;53.734;10.260;2023-11-21T03:37:29;100762.59;;;4.56;99.60
82418;BME280;72059;53.734;10.260;2023-11-21T03:39:57;100760.51;;;4.57;99.60
82418;BME280;72059;53.734;10.260;2023-11-21T03:42:24;100766.53;;;4.57;99.60
82418;BME280;72059;53.734;10.260;2023-11-21T03:44:55;100773.03;;;4.59;99.60
82418;BME280;72059;53.734;10.260;2023-11-21T03:47:22;100776.47;;;4.59;99.60
82418;BME280;72059;53.734;10.260;2023-11-21T03:49:50;100780.02;;;4.61;99.61
82418;BME280;72059;53.734;10.260;2023-11-21T03:52:17;100783.95;;;4.63;99.61
82418;BME280;72059;53.734;10.260;2023-11-21T03:54:44;100785.30;;;4.65;99.62
82418;BME280;72059;53.734;10.260;2023-11-21T03:57:12;100785.39;;;4.66;99.61
82418;BME280;72059;53.734;10.260;2023-11-21T03:59:41;100787.58;;;4.67;99.59
82418;BME280;72059;53.734;10.260;2023-11-21T04:02:09;100787.19;;;4.67;99.58
82418;BME280;72059;53.734;10.260;2023-11-21T04:04:36;100794.97;;;4.69;99.59
82418;BME280;72059;53.734;10.260;2023-11-21T04:07:04;100802.67;;;4.69;99.56
82418;BME280;72059;53.734;10.260;2023-11-21T04:09:32;100804.33;;;4.68;99.53
82418;BME280;72059;53.734;10.260;2023-11-21T04:11:59;100804.81;;;4.69;99.52
82418;BME280;72059;53.734;10.260;2023-11-21T04:14:27;100810.03;;;4.71;99.52
82418;BME280;72059;53.734;10.260;2023-11-21T04:16:54;100810.84;;;4.70;99.49
82418;BME280;72059;53.734;10.260;2023-11-21T04:19:21;100814.27;;;4.70;99.46
82418;BME280;72059;53.734;10.260;2023-11-21T04:21:49;100822.77;;;4.69;99.44
82418;BME280;72059;53.734;10.260;2023-11-21T04:24:17;100825.33;;;4.69;99.41
82418;BME280;72059;53.734;10.260;2023-11-21T04:26:45;100829.59;;;4.69;99.38
82418;BME280;72059;53.734;10.260;2023-11-21T04:29:12;100826.61;;;4.69;99.39
82418;BME280;72059;53.734;10.260;2023-11-21T04:31:40;100833.02;;;4.69;99.37
82418;BME280;72059;53.734;10.260;2023-11-21T04:34:07;100838.06;;;4.68;99.30
82418;BME280;72059;53.734;10.260;2023-11-21T04:36:35;100841.81;;;4.66;99.27
82418;BME280;72059;53.734;10.260;2023-11-21T04:39:02;100841.42;;;4.67;99.25
82418;BME280;72059;53.734;10.260;2023-11-21T04:41:30;100840.53;;;4.66;99.22
82418;BME280;72059;53.734;10.260;2023-11-21T04:43:57;100847.45;;;4.67;99.20
82418;BME280;72059;53.734;10.260;2023-11-21T04:46:26;100846.56;;;4.67;99.15
82418;BME280;72059;53.734;10.260;2023-11-21T04:48:54;100850.11;;;4.69;99.13
82418;BME280;72059;53.734;10.260;2023-11-21T04:51:21;100851.20;;;4.66;99.05
82418;BME280;72059;53.734;10.260;2023-11-21T04:53:49;100854.54;;;4.65;98.99
82418;BME280;72059;53.734;10.260;2023-11-21T04:56:16;100851.91;;;4.63;98.95
82418;BME280;72059;53.734;10.260;2023-11-21T04:58:43;100850.22;;;4.63;98.93
82418;BME280;72059;53.734;10.260;2023-11-21T05:01:11;100854.16;;;4.65;98.89
82418;BME280;72059;53.734;10.260;2023-11-21T05:03:38;100861.47;;;4.66;98.86
82418;BME280;72059;53.734;10.260;2023-11-21T05:06:09;100872.44;;;4.63;98.82
82418;BME280;72059;53.734;10.260;2023-11-21T05:08:35;100874.00;;;4.61;98.73
82418;BME280;72059;53.734;10.260;2023-11-21T05:11:03;100884.27;;;4.61;98.65
82418;BME280;72059;53.734;10.260;2023-11-21T05:13:33;100885.45;;;4.59;98.55
82418;BME280;72059;53.734;10.260;2023-11-21T05:16:01;100889.71;;;4.59;98.50
82418;BME280;72059;53.734;10.260;2023-11-21T05:18:30;100893.63;;;4.60;98.47
82418;BME280;72059;53.734;10.260;2023-11-21T05:20:57;100894.61;;;4.62;98.48
82418;BME280;72059;53.734;10.260;2023-11-21T05:23:25;100897.66;;;4.63;98.45
82418;BME280;72059;53.734;10.260;2023-11-21T05:25:52;100897.08;;;4.61;98.39
82418;BME280;72059;53.734;10.260;2023-11-21T05:28:20;100896.12;;;4.59;98.33
82418;BME280;72059;53.734;10.260;2023-11-21T05:30:47;100900.26;;;4.57;98.28
82418;BME280;72059;53.734;10.260;2023-11-21T05:33:16;100900.26;;;4.57;98.25
82418;BME280;72059;53.734;10.260;2023-11-21T05:35:43;100899.88;;;4.57;98.20
82418;BME280;72059;53.734;10.260;2023-11-21T05:38:11;100901.16;;;4.57;98.14
82418;BME280;72059;53.734;10.260;2023-11-21T05:40:38;100901.64;;;4.58;98.17
82418;BME280;72059;53.734;10.260;2023-11-21T05:43:06;100910.61;;;4.58;98.12
82418;BME280;72059;53.734;10.260;2023-11-21T05:45:33;100915.26;;;4.57;98.12
82418;BME280;72059;53.734;10.260;2023-11-21T05:48:01;100919.88;;;4.56;98.09
82418;BME280;72059;53.734;10.260;2023-11-21T05:50:29;100924.04;;;4.54;98.07
82418;BME280;72059;53.734;10.260;2023-11-21T05:52:57;100925.80;;;4.55;98.11
82418;BME280;72059;53.734;10.260;2023-11-21T05:55:26;100927.89;;;4.54;98.12
82418;BME280;72059;53.734;10.260;2023-11-21T05:57:53;100935.58;;;4.54;98.17
82418;BME280;72059;53.734;10.260;2023-11-21T06:00:21;100938.52;;;4.54;98.22
82418;BME280;72059;53.734;10.260;2023-11-21T06:02:49;100947.92;;;4.53;98.27
82418;BME280;72059;53.734;10.260;2023-11-21T06:05:23;100949.88;;;4.50;98.27
82418;BME280;72059;53.734;10.260;2023-11-21T06:07:50;100960.64;;;4.52;98.30
82418;BME280;72059;53.734;10.260;2023-11-21T06:10:21;100961.50;;;4.52;98.36
82418;BME280;72059;53.734;10.260;2023-11-21T06:12:50;100967.15;;;4.53;98.35
82418;BME280;72059;53.734;10.260;2023-11-21T06:15:17;100968.91;;;4.54;98.36
82418;BME280;72059;53.734;10.260;2023-11-21T06:17:47;100972.34;;;4.55;98.31
82418;BME280;72059;53.734;10.260;2023-11-21T06:20:16;100972.86;;;4.56;98.28
82418;BME280;72059;53.734;10.260;2023-11-21T06:22:46;100978.08;;;4.57;98.23
82418;BME280;72059;53.734;10.260;2023-11-21T06:25:14;100979.47;;;4.59;98.19
82418;BME280;72059;53.734;10.260;2023-11-21T06:27:46;100983.31;;;4.59;98.17
82418;BME280;72059;53.734;10.260;2023-11-21T06:30:17;100987.92;;;4.58;98.10
82418;BME280;72059;53.734;10.260;2023-11-21T06:32:46;100995.62;;;4.58;98.03
82418;BME280;72059;53.734;10.260;2023-11-21T06:35:14;100992.95;;;4.56;97.94
82418;BME280;72059;53.734;10.260;2023-11-21T06:37:41;101007.95;;;4.57;97.91
82418;BME280;72059;53.734;10.260;2023-11-21T06:40:10;101007.76;;;4.54;97.81
82418;BME280;72059;53.734;10.260;2023-11-21T06:42:40;101012.30;;;4.51;97.67
82418;BME280;72059;53.734;10.260;2023-11-21T06:45:08;101019.61;;;4.52;97.62
82418;BME280;72059;53.734;10.260;2023-11-21T06:47:37;101025.61;;;4.52;97.60
82418;BME280;72059;53.734;10.260;2023-11-21T06:50:04;101033.30;;;4.52;97.50
82418;BME280;72059;53.734;10.260;2023-11-21T06:52:33;101033.41;;;4.54;97.47
82418;BME280;72059;53.734;10.260;2023-11-21T06:55:01;101037.73;;;4.55;97.43
82418;BME280;72059;53.734;10.260;2023-11-21T06:57:29;101036.06;;;4.55;97.42
82418;BME280;72059;53.734;10.260;2023-11-21T06:59:57;101038.62;;;4.55;97.41
82418;BME280;72059;53.734;10.260;2023-11-21T07:02:24;101048.60;;;4.57;97.45
82418;BME280;72059;53.734;10.260;2023-11-21T07:04:52;101048.19;;;4.58;97.45
82418;BME280;72059;53.734;10.260;2023-11-21T07:07:19;101060.14;;;4.57;97.40
82418;BME280;72059;53.734;10.260;2023-11-21T07:09:47;101066.04;;;4.56;97.32
82418;BME280;72059;53.734;10.260;2023-11-21T07:12:15;101075.02;;;4.56;97.24
82418;BME280;72059;53.734;10.260;2023-11-21T07:14:42;101077.09;;;4.55;97.23
82418;BME280;72059;53.734;10.260;2023-11-21T07:17:11;101077.48;;;4.55;97.18
82418;BME280;72059;53.734;10.260;2023-11-21T07:19:39;101082.61;;;4.55;97.17
82418;BME280;72059;53.734;10.260;2023-11-21T07:22:07;101084.30;;;4.54;97.11
82418;BME280;72059;53.734;10.260;2023-11-21T07:24:35;101093.28;;;4.54;97.05
82418;BME280;72059;53.734;10.260;2023-11-21T07:27:03;101102.84;;;4.57;97.03
82418;BME280;72059;53.734;10.260;2023-11-21T07:29:30;101109.83;;;4.59;96.98
82418;BME280;72059;53.734;10.260;2023-11-21T07:31:59;101109.03;;;4.60;96.93
82418;BME280;72059;53.734;10.260;2023-11-21T07:34:27;101115.86;;;4.60;96.92
82418;BME280;72059;53.734;10.260;2023-11-21T07:36:54;101112.88;;;4.60;96.82
82418;BME280;72059;53.734;10.260;2023-11-21T07:39:21;101115.96;;;4.61;96.79
82418;BME280;72059;53.734;10.260;2023-11-21T07:41:49;101116.45;;;4.62;96.67
82418;BME280;72059;53.734;10.260;2023-11-21T07:44:17;101120.39;;;4.64;96.57
82418;BME280;72059;53.734;10.260;2023-11-21T07:46:46;101126.22;;;4.61;96.28
82418;BME280;72059;53.734;10.260;2023-11-21T07:49:13;101127.19;;;4.63;96.23
82418;BME280;72059;53.734;10.260;2023-11-21T07:51:43;101128.67;;;4.67;96.22
82418;BME280;72059;53.734;10.260;2023-11-21T07:54:10;101129.84;;;4.72;96.20
82418;BME280;72059;53.734;10.260;2023-11-21T07:56:38;101133.51;;;4.75;96.15
82418;BME280;72059;53.734;10.260;2023-11-21T07:59:05;101134.48;;;4.78;96.04
82418;BME280;72059;53.734;10.260;2023-11-21T08:01:33;101135.16;;;4.82;95.97
82418;BME280;72059;53.734;10.260;2023-11-21T08:04:00;101132.80;;;4.85;95.83
82418;BME280;72059;53.734;10.260;2023-11-21T08:06:30;101134.16;;;4.93;95.68
82418;BME280;72059;53.734;10.260;2023-11-21T08:08:59;101138.63;;;4.96;95.36
82418;BME280;72059;53.734;10.260;2023-11-21T08:11:26;101146.48;;;4.99;95.14
82418;BME280;72059;53.734;10.260;2023-11-21T08:13:55;101150.25;;;5.04;95.06
82418;BME280;72059;53.734;10.260;2023-11-21T08:16:23;101160.41;;;5.03;94.87
82418;BME280;72059;53.734;10.260;2023-11-21T08:18:51;101160.52;;;5.04;94.87
82418;BME280;72059;53.734;10.260;2023-11-21T08:21:18;101170.88;;;5.06;94.87
82418;BME280;72059;53.734;10.260;2023-11-21T08:23:45;101173.13;;;5.08;95.07
82418;BME280;72059;53.734;10.260;2023-11-21T08:26:16;101181.31;;;5.09;95.27
82418;BME280;72059;53.734;10.260;2023-11-21T08:28:44;101181.52;;;5.12;95.50
82418;BME280;72059;53.734;10.260;2023-11-21T08:31:13;101177.18;;;5.11;95.67
82418;BME280;72059;53.734;10.260;2023-11-21T08:33:41;101182.31;;;5.11;95.85
82418;BME280;72059;53.734;10.260;2023-11-21T08:36:09;101174.31;;;5.06;95.95
82418;BME280;72059;53.734;10.260;2023-11-21T08:38:38;101173.05;;;4.99;96.08
82418;BME280;72059;53.734;10.260;2023-11-21T08:41:06;101187.27;;;5.01;96.19
82418;BME280;72059;53.734;10.260;2023-11-21T08:43:37;101191.39;;;4.99;96.34
82418;BME280;72059;53.734;10.260;2023-11-21T08:46:07;101196.24;;;5.01;96.51
82418;BME280;72059;53.734;10.260;2023-11-21T08:48:37;101203.84;;;4.99;96.61
82418;BME280;72059;53.734;10.260;2023-11-21T08:51:05;101208.49;;;4.98;96.69
82418;BME280;72059;53.734;10.260;2023-11-21T08:53:33;101206.41;;;4.99;96.81
82418;BME280;72059;53.734;10.260;2023-11-21T08:56:00;101215.97;;;5.02;96.89
82418;BME280;72059;53.734;10.260;2023-11-21T08:58:28;101226.92;;;5.06;96.98
82418;BME280;72059;53.734;10.260;2023-11-21T09:00:55;101229.48;;;5.13;97.08
82418;BME280;72059;53.734;10.260;2023-11-21T09:03:23;101235.50;;;5.20;97.05
82418;BME280;72059;53.734;10.260;2023-11-21T09:05:50;101243.09;;;5.19;97.03
82418;BME280;72059;53.734;10.260;2023-11-21T09:08:18;101244.10;;;5.21;97.04
82418;BME280;72059;53.734;10.260;2023-11-21T09:10:45;101252.50;;;5.18;96.98
82418;BME280;72059;53.734;10.260;2023-11-21T09:13:13;101252.40;;;5.17;97.04
82418;BME280;72059;53.734;10.260;2023-11-21T09:15:43;101251.12;;;5.17;97.04
82418;BME280;72059;53.734;10.260;2023-11-21T09:18:14;101251.12;;;5.17;97.03
82418;BME280;72059;53.734;10.260;2023-11-21T09:20:42;101247.27;;;5.17;97.02
82418;BME280;72059;53.734;10.260;2023-11-21T09:23:13;101250.42;;;5.19;97.06
82418;BME280;72059;53.734;10.260;2023-11-21T09:25:40;101264.42;;;5.24;97.08
82418;BME280;72059;53.734;10.260;2023-11-21T09:28:07;101263.14;;;5.24;97.00
82418;BME280;72059;53.734;10.260;2023-11-21T09:30:35;101275.29;;;5.20;96.88
82418;BME280;72059;53.734;10.260;2023-11-21T09:33:03;101276.89;;;5.18;96.82
82418;BME280;72059;53.734;10.260;2023-11-21T09:35:37;101279.55;;;5.20;96.76
82418;BME280;72059;53.734;10.260;2023-11-21T09:38:04;101284.97;;;5.18;96.56
82418;BME280;72059;53.734;10.260;2023-11-21T09:40:38;101280.23;;;5.10;96.21
82418;BME280;72059;53.734;10.260;2023-11-21T09:43:16;101287.66;;;5.06;96.05
82418;BME280;72059;53.734;10.260;2023-11-21T09:45:48;101290.91;;;5.10;95.90
82418;BME280;72059;53.734;10.260;2023-11-21T09:48:17;101298.99;;;5.09;95.70
82418;BME280;72059;53.734;10.260;2023-11-21T09:50:47;101305.90;;;5.04;95.27
82418;BME280;72059;53.734;10.260;2023-11-21T09:53:21;101308.84;;;5.03;95.42
82418;BME280;72059;53.734;10.260;2023-11-21T09:55:51;101307.28;;;5.05;95.54
82418;BME280;72059;53.734;10.260;2023-11-21T09:58:20;101318.52;;;5.07;95.51
82418;BME280;72059;53.734;10.260;2023-11-21T10:00:52;101323.58;;;5.12;95.49
82418;BME280;72059;53.734;10.260;2023-11-21T10:03:19;101323.86;;;5.10;95.41
82418;BME280;72059;53.734;10.260;2023-11-21T10:05:48;101334.64;;;5.11;95.00
82418;BME280;72059;53.734;10.260;2023-11-21T10:08:16;101331.28;;;5.12;94.80
82418;BME280;72059;53.734;10.260;2023-11-21T10:10:46;101331.95;;;5.03;94.59
82418;BME280;72059;53.734;10.260;2023-11-21T10:13:14;101332.47;;;5.04;94.53
82418;BME280;72059;53.734;10.260;2023-11-21T10:15:50;101332.36;;;5.16;94.74
82418;BME280;72059;53.734;10.260;2023-11-21T10:18:17;101337.69;;;5.26;94.27
82418;BME280;72059;53.734;10.260;2023-11-21T10:20:45;101330.30;;;5.31;93.90
82418;BME280;72059;53.734;10.260;2023-11-21T10:23:23;101335.72;;;5.49;94.19
82418;BME280;72059;53.734;10.260;2023-11-21T10:25:52;101338.89;;;5.58;94.32
82418;BME280;72059;53.734;10.260;2023-11-21T10:28:21;101339.05;;;5.61;94.28
82418;BME280;72059;53.734;10.260;2023-11-21T10:30:48;101343.13;;;5.58;94.05
82418;BME280;72059;53.734;10.260;2023-11-21T10:33:16;101336.12;;;5.55;93.95
82418;BME280;72059;53.734;10.260;2023-11-21T10:35:46;101343.41;;;5.56;93.90
82418;BME280;72059;53.734;10.260;2023-11-21T10:38:19;101347.76;;;5.50;93.58
82418;BME280;72059;53.734;10.260;2023-11-21T10:40:51;101346.18;;;5.38;93.30
82418;BME280;72059;53.734;10.260;2023-11-21T10:43:18;101348.66;;;5.30;93.32
82418;BME280;72059;53.734;10.260;2023-11-21T10:45:46;101351.81;;;5.26;93.51
82418;BME280;72059;53.734;10.260;2023-11-21T10:48:14;101352.30;;;5.20;93.50
82418;BME280;72059;53.734;10.260;2023-11-21T10:50:43;101356.36;;;5.23;91.42
82418;BME280;72059;53.734;10.260;2023-11-21T10:53:11;101354.87;;;5.00;92.13
82418;BME280;72059;53.734;10.260;2023-11-21T10:55:39;101355.45;;;4.96;92.71
82418;BME280;72059;53.734;10.260;2023-11-21T10:58:07;101364.12;;;4.91;92.93
82418;BME280;72059;53.734;10.260;2023-11-21T11:00:36;101365.09;;;4.86;93.08
82418;BME280;72059;53.734;10.260;2023-11-21T11:03:06;101362.04;;;4.92;93.21
82418;BME280;72059;53.734;10.260;2023-11-21T11:05:35;101365.57;;;4.87;92.97
82418;BME280;72059;53.734;10.260;2023-11-21T11:08:06;101370.42;;;4.83;93.16
82418;BME280;72059;53.734;10.260;2023-11-21T11:10:35;101369.04;;;4.88;93.46
82418;BME280;72059;53.734;10.260;2023-11-21T11:13:04;101373.90;;;4.90;93.39
82418;BME280;72059;53.734;10.260;2023-11-21T11:15:31;101372.78;;;4.86;93.32
82418;BME280;72059;53.734;10.260;2023-11-21T11:17:59;101382.13;;;4.79;93.36
82418;BME280;72059;53.734;10.260;2023-11-21T11:20:34;101373.36;;;4.75;93.61
82418;BME280;72059;53.734;10.260;2023-11-21T11:23:28;101378.59;;;4.77;93.87
82418;BME280;72059;53.734;10.260;2023-11-21T11:26:26;101375.51;;;4.76;93.89
82418;BME280;72059;53.734;10.260;2023-11-21T11:34:29;101383.83;;;4.79;93.75
82418;BME280;72059;53.734;10.260;2023-11-21T11:37:06;101385.97;;;4.72;93.53
82418;BME280;72059;53.734;10.260;2023-11-21T11:39:38;101378.47;;;4.69;93.35
82418;BME280;72059;53.734;10.260;2023-11-21T11:42:13;101387.14;;;4.71;93.45
82418;BME280;72059;53.734;10.260;2023-11-21T11:47:16;101388.27;;;4.74;93.55
82418;BME280;72059;53.734;10.260;2023-11-21T11:50:07;101384.30;;;4.73;93.47
82418;BME280;72059;53.734;10.260;2023-11-21T11:52:37;101388.44;;;4.78;93.70
82418;BME280;72059;53.734;10.260;2023-11-21T11:55:16;101385.19;;;4.80;93.65
82418;BME280;72059;53.734;10.260;2023-11-21T11:57:54;101390.64;;;4.85;93.79
82418;BME280;72059;53.734;10.260;2023-11-21T12:03:01;101402.87;;;4.82;93.77
82418;BME280;72059;53.734;10.260;2023-11-21T12:05:35;101403.56;;;4.80;93.88
82418;BME280;72059;53.734;10.260;2023-11-21T12:08:03;101406.23;;;4.81;94.11
82418;BME280;72059;53.734;10.260;2023-11-21T12:10:32;101407.20;;;4.83;94.31
82418;BME280;72059;53.734;10.260;2023-11-21T12:13:02;101409.02;;;4.84;94.40
82418;BME280;72059;53.734;10.260;2023-11-21T12:15:32;101419.66;;;4.84;94.29
82418;BME280;72059;53.734;10.260;2023-11-21T12:17:59;101422.39;;;4.80;94.41
82418;BME280;72059;53.734;10.260;2023-11-21T12:20:28;101427.14;;;4.81;94.71
82418;BME280;72059;53.734;10.260;2023-11-21T12:22:57;101424.09;;;4.80;94.91
82418;BME280;72059;53.734;10.260;2023-11-21T12:25:28;101437.42;;;4.87;95.10
82418;BME280;72059;53.734;10.260;2023-11-21T12:27:59;101439.51;;;4.93;95.18
82418;BME280;72059;53.734;10.260;2023-11-21T12:30:28;101437.73;;;4.92;95.25
82418;BME280;72059;53.734;10.260;2023-11-21T12:32:59;101443.77;;;4.93;95.36
82418;BME280;72059;53.734;10.260;2023-11-21T12:35:29;101450.77;;;4.88;95.36
82418;BME280;72059;53.734;10.260;2023-11-21T12:37:57;101466.44;;;4.86;95.42
82418;BME280;72059;53.734;10.260;2023-11-21T12:40:25;101462.48;;;4.85;95.30
82418;BME280;72059;53.734;10.260;2023-11-21T12:42:59;101474.00;;;4.78;95.17
82418;BME280;72059;53.734;10.260;2023-11-21T12:45:28;101466.31;;;4.78;95.42
82418;BME280;72059;53.734;10.260;2023-11-21T12:48:01;101465.22;;;4.74;95.58
82418;BME280;72059;53.734;10.260;2023-11-21T12:50:31;101470.64;;;4.79;95.59
82418;BME280;72059;53.734;10.260;2023-11-21T12:53:01;101465.73;;;4.63;95.08
82418;BME280;72059;53.734;10.260;2023-11-21T12:55:33;101470.95;;;4.58;95.18
82418;BME280;72059;53.734;10.260;2023-11-21T12:58:03;101474.14;;;4.49;95.12
82418;BME280;72059;53.734;10.260;2023-11-21T13:00:37;101475.39;;;4.42;94.68
82418;BME280;72059;53.734;10.260;2023-11-21T13:03:07;101481.20;;;4.40;95.05
82418;BME280;72059;53.734;10.260;2023-11-21T13:05:39;101479.64;;;4.42;95.31
82418;BME280;72059;53.734;10.260;2023-11-21T13:08:12;101487.41;;;4.43;95.50